x

Passage Island, Mi (pilm4) Weather Station

5:00am - Mon 1st Sep 2014 All times are CDT. -5 hours from GMT.

  • Wind
    11mph, 13mph gusts
  • Air Temp 60°f
  • Sea Pressure 1001.4mb
  • Passage Island, Mi
  • Passage Island, Mi

More Historic Weather Station data

Upgrade to MSW Pro to gain access to the past 30 days of data for over 8000 Wavebouys and Weather Stations around the globe.

Join Pro

Comparision Forecast

View Surf forecast
   
Mon 09/01 5:00am 11 13 mph 1001.4mb 60f
4:00am 15 16 mph 1003.5mb 58f
3:00am 23 24 mph 1004.4mb 59f
2:00am 22 24 mph 1003.8mb 57f
1:00am 21 23 mph 1005.6mb 58f
12:00am 28 36 mph 1007.2mb 57f
Sun 08/31 11:00pm 25 28 mph 1006.8mb 57f
10:00pm 26 30 mph 1007.3mb 57f
9:00pm 22 24 mph 1008.1mb 56f
8:00pm 21 23 mph 1008.4mb 56f
7:00pm 21 23 mph 1009.1mb 56f
6:00pm 21 23 mph 1009.8mb 55f
5:00pm 16 18 mph 1011mb 55f
4:00pm 15 16 mph 1012mb 55f
3:00pm 14 15 mph 1012.9mb 55f
2:00pm 13 14 mph 1013.6mb 55f
1:00pm 10 11 mph 1014.2mb 55f
12:00pm 9 10 mph 1014.9mb 55f
11:00am 7 8 mph 1014.7mb 55f
10:00am 6 7 mph 1015.1mb 56f
9:00am 9
mph
1015.6mb 55f
8:00am 10 11 mph 1015.4mb 55f
7:00am 13 14 mph 1015mb 55f
6:00am 6 7 mph 1015.2mb 56f
5:00am 7 8 mph 1015.1mb 56f
4:00am 10 11 mph 1014.3mb 56f
3:00am 11 13 mph 1013.9mb 57f
2:00am 8 10 mph 1013.7mb 59f
1:00am 11
mph
1013.9mb 59f
12:00am 7 8 mph 1013.8mb 58f
Sat 08/30 11:00pm 7 9 mph 1013.8mb 58f
10:00pm 6 9 mph 1013.5mb 58f
9:00pm 9 10 mph 1013.5mb 60f
8:00pm 9 10 mph 1013mb 60f
7:00pm 8 10 mph 1012.4mb 60f
6:00pm 7 9 mph 1012.3mb 60f
5:00pm 8 10 mph 1012.1mb 60f
4:00pm 5 8 mph 1012mb 61f
3:00pm 5 6 mph 1012.1mb 60f
2:00pm 7 10 mph 1012.1mb 61f
1:00pm 7 10 mph 1012.1mb 60f
12:00pm 7 9 mph 1011.9mb 60f
11:00am 6 9 mph 1012mb 59f
10:00am 8 13 mph 1011.6mb 58f
9:00am 8 10 mph 1011.5mb 58f
8:00am 7 10 mph 1011.3mb 57f
7:00am 6 7 mph 1011.2mb 56f
6:00am 3 6 mph 1010.7mb 56f
5:00am 5 7 mph 1010.1mb 56f
4:00am 5 7 mph 1010.3mb 56f
3:00am 6 7 mph 1010mb 56f
2:00am 3 6 mph 1010mb 55f
1:00am 6 7 mph 1009.7mb 55f
12:00am 7 9 mph 1009.8mb 55f
Fri 08/29 11:00pm 7 9 mph 1009.9mb 55f
10:00pm 7 9 mph 1009.7mb 56f
9:00pm 2 3 mph 1009.6mb 56f
8:00pm 3 5 mph 1009.5mb 56f
7:00pm 7 8 mph 1009.5mb 55f
6:00pm 11 13 mph 1009.4mb 55f
5:00pm 9 10 mph 1010.1mb 55f
4:00pm 16 17 mph 1010.4mb 55f
3:00pm 10 11 mph 1011.4mb 55f
2:00pm 11 13 mph 1012.5mb 55f
1:00pm 15 17 mph 1012.9mb 56f
12:00pm 18 20 mph 1013.1mb 56f
11:00am 16 17 mph 1013.6mb 57f
10:00am 15 17 mph 1013.9mb 57f
9:00am 10 11 mph 1014.6mb 57f
8:00am 8 9 mph 1015.3mb 58f
7:00am 14
mph
1015.2mb 59f
6:00am 14 15 mph 1015.2mb 58f
5:00am 14 15 mph 1015.3mb 58f
4:00am 15 16 mph 1015.4mb 58f
3:00am 15 16 mph 1015.6mb 57f
2:00am 17 18 mph 1016mb 56f
1:00am 18 20 mph 1016.4mb 56f
12:00am 20 21 mph 1016.9mb 56f
Thu 08/28 11:00pm 18 20 mph 1017.4mb 56f
10:00pm 21 23 mph 1018.1mb 57f
9:00pm 21 23 mph 1018.3mb 57f
8:00pm 20 21 mph 1018.3mb 58f
7:00pm 18 20 mph 1018.4mb 58f
6:00pm 16 17 mph 1019mb 58f
5:00pm 15 16 mph 1019.4mb 58f
4:00pm 11 13 mph 1020.2mb 57f
3:00pm 9
mph
1020.6mb 57f
2:00pm 8 9 mph 1021.4mb 57f
1:00pm 8 9 mph 1021.6mb 56f
12:00pm 10 11 mph 1022.1mb 56f